sensor_id;sensor_type;location;lat;lon;timestamp;temperature;humidity
15239;DHT22;7722;53.274;9.500;2024-03-02T00:00:30;6.50;99.90
15239;DHT22;7722;53.274;9.500;2024-03-02T00:02:57;6.50;99.90
15239;DHT22;7722;53.274;9.500;2024-03-02T00:05:25;6.50;99.90
15239;DHT22;7722;53.274;9.500;2024-03-02T00:07:54;6.50;99.90
15239;DHT22;7722;53.274;9.500;2024-03-02T00:10:24;6.50;99.90
15239;DHT22;7722;53.274;9.500;2024-03-02T00:12:55;6.50;99.90
15239;DHT22;7722;53.274;9.500;2024-03-02T00:15:40;6.50;99.90
15239;DHT22;7722;53.274;9.500;2024-03-02T00:18:10;6.50;99.90
15239;DHT22;7722;53.274;9.500;2024-03-02T00:20:40;6.50;99.90
15239;DHT22;7722;53.274;9.500;2024-03-02T00:23:08;6.50;99.90
15239;DHT22;7722;53.274;9.500;2024-03-02T00:25:43;6.50;99.90
15239;DHT22;7722;53.274;9.500;2024-03-02T00:28:14;6.40;99.90
15239;DHT22;7722;53.274;9.500;2024-03-02T00:30:56;6.40;99.90
15239;DHT22;7722;53.274;9.500;2024-03-02T00:33:31;6.40;99.90
15239;DHT22;7722;53.274;9.500;2024-03-02T00:36:00;6.40;99.90
15239;DHT22;7722;53.274;9.500;2024-03-02T00:38:28;6.40;99.90
15239;DHT22;7722;53.274;9.500;2024-03-02T00:40:57;6.40;99.90
15239;DHT22;7722;53.274;9.500;2024-03-02T00:43:43;6.40;99.90
15239;DHT22;7722;53.274;9.500;2024-03-02T00:46:15;6.40;99.90
15239;DHT22;7722;53.274;9.500;2024-03-02T00:48:48;6.40;99.90
15239;DHT22;7722;53.274;9.500;2024-03-02T00:51:18;6.40;99.90
15239;DHT22;7722;53.274;9.500;2024-03-02T00:53:46;6.40;99.90
15239;DHT22;7722;53.274;9.500;2024-03-02T00:56:13;6.40;99.90
15239;DHT22;7722;53.274;9.500;2024-03-02T00:58:40;6.40;99.90
15239;DHT22;7722;53.274;9.500;2024-03-02T01:01:07;6.40;99.90
15239;DHT22;7722;53.274;9.500;2024-03-02T01:03:35;6.50;99.90
15239;DHT22;7722;53.274;9.500;2024-03-02T01:06:03;6.50;99.90
15239;DHT22;7722;53.274;9.500;2024-03-02T01:08:34;6.50;99.90
15239;DHT22;7722;53.274;9.500;2024-03-02T01:11:01;6.50;99.90
15239;DHT22;7722;53.274;9.500;2024-03-02T01:13:28;6.50;99.90
15239;DHT22;7722;53.274;9.500;2024-03-02T01:15:56;6.60;99.90
15239;DHT22;7722;53.274;9.500;2024-03-02T01:18:23;6.60;99.90
15239;DHT22;7722;53.274;9.500;2024-03-02T01:20:50;6.60;99.90
15239;DHT22;7722;53.274;9.500;2024-03-02T01:23:18;6.60;99.90
15239;DHT22;7722;53.274;9.500;2024-03-02T01:25:48;6.60;99.90
15239;DHT22;7722;53.274;9.500;2024-03-02T01:28:15;6.50;99.90
15239;DHT22;7722;53.274;9.500;2024-03-02T01:30:42;6.60;99.90
15239;DHT22;7722;53.274;9.500;2024-03-02T01:33:09;6.60;99.90
15239;DHT22;7722;53.274;9.500;2024-03-02T01:35:36;6.60;99.90
15239;DHT22;7722;53.274;9.500;2024-03-02T01:38:04;6.60;99.90
15239;DHT22;7722;53.274;9.500;2024-03-02T01:40:33;6.60;99.90
15239;DHT22;7722;53.274;9.500;2024-03-02T01:43:02;6.60;99.90
15239;DHT22;7722;53.274;9.500;2024-03-02T01:45:30;6.60;99.90
15239;DHT22;7722;53.274;9.500;2024-03-02T01:47:58;6.60;99.90
15239;DHT22;7722;53.274;9.500;2024-03-02T01:50:26;6.60;99.90
15239;DHT22;7722;53.274;9.500;2024-03-02T01:52:53;6.70;99.90
15239;DHT22;7722;53.274;9.500;2024-03-02T01:55:20;6.70;99.90
15239;DHT22;7722;53.274;9.500;2024-03-02T01:57:48;6.70;99.90
15239;DHT22;7722;53.274;9.500;2024-03-02T02:00:18;6.70;99.90
15239;DHT22;7722;53.274;9.500;2024-03-02T02:02:46;6.70;99.90
15239;DHT22;7722;53.274;9.500;2024-03-02T02:05:13;6.70;99.90
15239;DHT22;7722;53.274;9.500;2024-03-02T02:07:40;6.70;99.90
15239;DHT22;7722;53.274;9.500;2024-03-02T02:10:09;6.70;99.90
15239;DHT22;7722;53.274;9.500;2024-03-02T02:12:36;6.70;99.90
15239;DHT22;7722;53.274;9.500;2024-03-02T02:15:04;6.70;99.90
15239;DHT22;7722;53.274;9.500;2024-03-02T02:17:49;6.70;99.90
15239;DHT22;7722;53.274;9.500;2024-03-02T02:20:16;6.70;99.90
15239;DHT22;7722;53.274;9.500;2024-03-02T02:22:55;6.70;99.90
15239;DHT22;7722;53.274;9.500;2024-03-02T02:25:22;6.70;99.90
15239;DHT22;7722;53.274;9.500;2024-03-02T02:27:50;6.60;99.90
15239;DHT22;7722;53.274;9.500;2024-03-02T02:30:19;6.60;99.90
15239;DHT22;7722;53.274;9.500;2024-03-02T02:32:47;6.60;99.90
15239;DHT22;7722;53.274;9.500;2024-03-02T02:35:14;6.60;99.90
15239;DHT22;7722;53.274;9.500;2024-03-02T02:37:41;6.60;99.90
15239;DHT22;7722;53.274;9.500;2024-03-02T02:40:11;6.60;99.90
15239;DHT22;7722;53.274;9.500;2024-03-02T02:42:39;6.60;99.90
15239;DHT22;7722;53.274;9.500;2024-03-02T02:45:06;6.60;99.90
15239;DHT22;7722;53.274;9.500;2024-03-02T02:47:34;6.60;99.90
15239;DHT22;7722;53.274;9.500;2024-03-02T02:50:02;6.60;99.90
15239;DHT22;7722;53.274;9.500;2024-03-02T02:52:32;6.50;99.90
15239;DHT22;7722;53.274;9.500;2024-03-02T02:55:03;6.50;99.90
15239;DHT22;7722;53.274;9.500;2024-03-02T02:57:32;6.50;99.90
15239;DHT22;7722;53.274;9.500;2024-03-02T03:00:02;6.40;99.90
15239;DHT22;7722;53.274;9.500;2024-03-02T03:02:36;6.40;99.90
15239;DHT22;7722;53.274;9.500;2024-03-02T03:05:04;6.50;99.90
15239;DHT22;7722;53.274;9.500;2024-03-02T03:07:32;6.60;99.90
15239;DHT22;7722;53.274;9.500;2024-03-02T03:09:59;6.60;99.90
15239;DHT22;7722;53.274;9.500;2024-03-02T03:12:26;6.60;99.90
15239;DHT22;7722;53.274;9.500;2024-03-02T03:14:55;6.60;99.90
15239;DHT22;7722;53.274;9.500;2024-03-02T03:17:22;6.60;99.90
15239;DHT22;7722;53.274;9.500;2024-03-02T03:19:50;6.60;99.90
15239;DHT22;7722;53.274;9.500;2024-03-02T03:22:17;6.50;99.90
15239;DHT22;7722;53.274;9.500;2024-03-02T03:24:44;6.50;99.90
15239;DHT22;7722;53.274;9.500;2024-03-02T03:27:11;6.50;99.90
15239;DHT22;7722;53.274;9.500;2024-03-02T03:29:39;6.50;99.90
15239;DHT22;7722;53.274;9.500;2024-03-02T03:32:07;6.50;99.90
15239;DHT22;7722;53.274;9.500;2024-03-02T03:34:35;6.40;99.90
15239;DHT22;7722;53.274;9.500;2024-03-02T03:37:02;6.30;99.90
15239;DHT22;7722;53.274;9.500;2024-03-02T03:39:29;6.30;99.90
15239;DHT22;7722;53.274;9.500;2024-03-02T03:41:56;6.30;99.90
15239;DHT22;7722;53.274;9.500;2024-03-02T03:44:23;6.20;99.90
15239;DHT22;7722;53.274;9.500;2024-03-02T03:46:50;6.20;99.90
15239;DHT22;7722;53.274;9.500;2024-03-02T03:49:19;6.20;99.90
15239;DHT22;7722;53.274;9.500;2024-03-02T03:51:46;6.20;99.90
15239;DHT22;7722;53.274;9.500;2024-03-02T03:54:13;6.20;99.90
15239;DHT22;7722;53.274;9.500;2024-03-02T03:56:40;6.20;99.90
15239;DHT22;7722;53.274;9.500;2024-03-02T03:59:08;6.20;99.90
15239;DHT22;7722;53.274;9.500;2024-03-02T04:01:35;6.20;99.90
15239;DHT22;7722;53.274;9.500;2024-03-02T04:04:02;6.10;99.90
15239;DHT22;7722;53.274;9.500;2024-03-02T04:06:30;6.10;99.90
15239;DHT22;7722;53.274;9.500;2024-03-02T04:08:58;6.10;99.90
15239;DHT22;7722;53.274;9.500;2024-03-02T04:11:25;6.00;99.90
15239;DHT22;7722;53.274;9.500;2024-03-02T04:13:52;6.00;99.90
15239;DHT22;7722;53.274;9.500;2024-03-02T04:16:19;6.00;99.90
15239;DHT22;7722;53.274;9.500;2024-03-02T04:18:46;6.00;99.90
15239;DHT22;7722;53.274;9.500;2024-03-02T04:21:13;5.90;99.90
15239;DHT22;7722;53.274;9.500;2024-03-02T04:23:42;5.90;99.90
15239;DHT22;7722;53.274;9.500;2024-03-02T04:26:09;5.90;99.90
15239;DHT22;7722;53.274;9.500;2024-03-02T04:28:36;5.80;99.90
15239;DHT22;7722;53.274;9.500;2024-03-02T04:31:03;5.80;99.90
15239;DHT22;7722;53.274;9.500;2024-03-02T04:33:30;5.80;99.90
15239;DHT22;7722;53.274;9.500;2024-03-02T04:35:57;5.70;99.90
15239;DHT22;7722;53.274;9.500;2024-03-02T04:38:24;5.70;99.90
15239;DHT22;7722;53.274;9.500;2024-03-02T04:40:52;5.70;99.90
15239;DHT22;7722;53.274;9.500;2024-03-02T04:43:20;5.70;99.90
15239;DHT22;7722;53.274;9.500;2024-03-02T04:45:47;5.80;99.90
15239;DHT22;7722;53.274;9.500;2024-03-02T04:48:14;5.80;99.90
15239;DHT22;7722;53.274;9.500;2024-03-02T04:50:41;5.80;99.90
15239;DHT22;7722;53.274;9.500;2024-03-02T04:53:08;5.70;99.90
15239;DHT22;7722;53.274;9.500;2024-03-02T04:55:35;5.70;99.90
15239;DHT22;7722;53.274;9.500;2024-03-02T04:58:30;5.60;99.90
15239;DHT22;7722;53.274;9.500;2024-03-02T05:00:57;5.60;99.90
15239;DHT22;7722;53.274;9.500;2024-03-02T05:03:24;5.80;99.90
15239;DHT22;7722;53.274;9.500;2024-03-02T05:05:51;5.70;99.90
15239;DHT22;7722;53.274;9.500;2024-03-02T05:08:18;5.70;99.90
15239;DHT22;7722;53.274;9.500;2024-03-02T05:10:46;5.70;99.90
15239;DHT22;7722;53.274;9.500;2024-03-02T05:13:13;5.60;99.90
15239;DHT22;7722;53.274;9.500;2024-03-02T05:15:40;5.50;99.90
15239;DHT22;7722;53.274;9.500;2024-03-02T05:18:09;5.50;99.90
15239;DHT22;7722;53.274;9.500;2024-03-02T05:20:36;5.30;99.90
15239;DHT22;7722;53.274;9.500;2024-03-02T05:23:03;5.30;99.90
15239;DHT22;7722;53.274;9.500;2024-03-02T05:25:30;5.20;99.90
15239;DHT22;7722;53.274;9.500;2024-03-02T05:27:57;5.20;99.90
15239;DHT22;7722;53.274;9.500;2024-03-02T05:30:24;5.20;99.90
15239;DHT22;7722;53.274;9.500;2024-03-02T05:32:53;5.20;99.90
15239;DHT22;7722;53.274;9.500;2024-03-02T05:35:20;5.20;99.90
15239;DHT22;7722;53.274;9.500;2024-03-02T05:37:47;5.20;99.90
15239;DHT22;7722;53.274;9.500;2024-03-02T05:40:15;5.20;99.90
15239;DHT22;7722;53.274;9.500;2024-03-02T05:42:42;5.30;99.90
15239;DHT22;7722;53.274;9.500;2024-03-02T05:45:09;5.30;99.90
15239;DHT22;7722;53.274;9.500;2024-03-02T05:47:36;5.30;99.90
15239;DHT22;7722;53.274;9.500;2024-03-02T05:50:06;5.40;99.90
15239;DHT22;7722;53.274;9.500;2024-03-02T05:52:33;5.50;99.90
15239;DHT22;7722;53.274;9.500;2024-03-02T05:55:01;5.50;99.90
15239;DHT22;7722;53.274;9.500;2024-03-02T05:57:28;5.60;99.90
15239;DHT22;7722;53.274;9.500;2024-03-02T06:00:11;5.60;99.90
15239;DHT22;7722;53.274;9.500;2024-03-02T06:02:39;5.60;99.90
15239;DHT22;7722;53.274;9.500;2024-03-02T06:05:08;5.60;99.90
15239;DHT22;7722;53.274;9.500;2024-03-02T06:07:35;5.50;99.90
15239;DHT22;7722;53.274;9.500;2024-03-02T06:10:03;5.60;99.90
15239;DHT22;7722;53.274;9.500;2024-03-02T06:12:31;5.70;99.90
15239;DHT22;7722;53.274;9.500;2024-03-02T06:14:59;5.70;99.90
15239;DHT22;7722;53.274;9.500;2024-03-02T06:17:26;5.60;99.90
15239;DHT22;7722;53.274;9.500;2024-03-02T06:19:53;5.50;99.90
15239;DHT22;7722;53.274;9.500;2024-03-02T06:22:21;5.40;99.90
15239;DHT22;7722;53.274;9.500;2024-03-02T06:24:50;5.40;99.90
15239;DHT22;7722;53.274;9.500;2024-03-02T06:27:17;5.30;99.90
15239;DHT22;7722;53.274;9.500;2024-03-02T06:29:44;5.30;99.90
15239;DHT22;7722;53.274;9.500;2024-03-02T06:32:12;5.30;99.90
15239;DHT22;7722;53.274;9.500;2024-03-02T06:34:39;5.30;99.90
15239;DHT22;7722;53.274;9.500;2024-03-02T06:37:06;5.30;99.90
15239;DHT22;7722;53.274;9.500;2024-03-02T06:39:34;5.30;99.90
15239;DHT22;7722;53.274;9.500;2024-03-02T06:42:03;5.30;99.90
15239;DHT22;7722;53.274;9.500;2024-03-02T06:44:30;5.40;99.90
15239;DHT22;7722;53.274;9.500;2024-03-02T06:46:57;5.40;99.90
15239;DHT22;7722;53.274;9.500;2024-03-02T06:49:24;5.50;99.90
15239;DHT22;7722;53.274;9.500;2024-03-02T06:51:51;5.60;99.90
15239;DHT22;7722;53.274;9.500;2024-03-02T06:54:19;5.60;99.90
15239;DHT22;7722;53.274;9.500;2024-03-02T06:56:47;5.70;99.90
15239;DHT22;7722;53.274;9.500;2024-03-02T06:59:14;5.80;99.90
15239;DHT22;7722;53.274;9.500;2024-03-02T07:01:41;5.90;99.90
15239;DHT22;7722;53.274;9.500;2024-03-02T07:04:09;6.00;99.90
15239;DHT22;7722;53.274;9.500;2024-03-02T07:06:36;6.10;99.90
15239;DHT22;7722;53.274;9.500;2024-03-02T07:09:03;6.20;99.90
15239;DHT22;7722;53.274;9.500;2024-03-02T07:11:31;6.30;99.90
15239;DHT22;7722;53.274;9.500;2024-03-02T07:13:59;6.30;99.90
15239;DHT22;7722;53.274;9.500;2024-03-02T07:16:27;6.50;99.90
15239;DHT22;7722;53.274;9.500;2024-03-02T07:18:58;6.50;99.90
15239;DHT22;7722;53.274;9.500;2024-03-02T07:21:27;6.60;99.90
15239;DHT22;7722;53.274;9.500;2024-03-02T07:23:54;6.70;99.90
15239;DHT22;7722;53.274;9.500;2024-03-02T07:26:21;6.70;99.90
15239;DHT22;7722;53.274;9.500;2024-03-02T07:28:49;6.90;99.90
15239;DHT22;7722;53.274;9.500;2024-03-02T07:31:17;7.00;99.90
15239;DHT22;7722;53.274;9.500;2024-03-02T07:33:44;7.10;99.90
15239;DHT22;7722;53.274;9.500;2024-03-02T07:38:47;7.20;99.90
15239;DHT22;7722;53.274;9.500;2024-03-02T07:41:15;7.30;99.90
15239;DHT22;7722;53.274;9.500;2024-03-02T07:43:43;7.30;99.90
15239;DHT22;7722;53.274;9.500;2024-03-02T07:46:11;7.40;99.90
15239;DHT22;7722;53.274;9.500;2024-03-02T07:48:39;7.40;99.90
15239;DHT22;7722;53.274;9.500;2024-03-02T07:51:06;7.50;99.90
15239;DHT22;7722;53.274;9.500;2024-03-02T07:53:33;7.60;99.90
15239;DHT22;7722;53.274;9.500;2024-03-02T07:56:01;7.70;99.90
15239;DHT22;7722;53.274;9.500;2024-03-02T07:58:29;7.80;99.90
15239;DHT22;7722;53.274;9.500;2024-03-02T08:00:59;7.90;99.90
15239;DHT22;7722;53.274;9.500;2024-03-02T08:03:27;7.90;99.90
15239;DHT22;7722;53.274;9.500;2024-03-02T08:05:55;8.10;99.90
15239;DHT22;7722;53.274;9.500;2024-03-02T08:08:22;8.20;99.90
15239;DHT22;7722;53.274;9.500;2024-03-02T08:10:49;8.20;99.90
15239;DHT22;7722;53.274;9.500;2024-03-02T08:13:16;8.30;99.90
15239;DHT22;7722;53.274;9.500;2024-03-02T08:15:43;8.40;99.90
15239;DHT22;7722;53.274;9.500;2024-03-02T08:18:11;8.40;99.90
15239;DHT22;7722;53.274;9.500;2024-03-02T08:20:38;8.50;99.90
15239;DHT22;7722;53.274;9.500;2024-03-02T08:23:06;8.60;99.90
15239;DHT22;7722;53.274;9.500;2024-03-02T08:25:34;8.80;99.90
15239;DHT22;7722;53.274;9.500;2024-03-02T08:28:01;8.90;99.90
15239;DHT22;7722;53.274;9.500;2024-03-02T08:30:28;9.10;99.90
15239;DHT22;7722;53.274;9.500;2024-03-02T08:32:55;9.30;99.90
15239;DHT22;7722;53.274;9.500;2024-03-02T08:35:22;9.50;99.90
15239;DHT22;7722;53.274;9.500;2024-03-02T08:37:49;9.60;99.90
15239;DHT22;7722;53.274;9.500;2024-03-02T08:40:18;9.70;99.90
15239;DHT22;7722;53.274;9.500;2024-03-02T08:42:45;9.70;99.90
15239;DHT22;7722;53.274;9.500;2024-03-02T08:45:12;9.80;99.90
15239;DHT22;7722;53.274;9.500;2024-03-02T08:47:40;9.80;99.90
15239;DHT22;7722;53.274;9.500;2024-03-02T08:50:08;9.80;99.90
15239;DHT22;7722;53.274;9.500;2024-03-02T08:52:35;9.80;99.90
15239;DHT22;7722;53.274;9.500;2024-03-02T08:55:02;9.80;99.90
15239;DHT22;7722;53.274;9.500;2024-03-02T08:57:31;9.90;99.90
15239;DHT22;7722;53.274;9.500;2024-03-02T08:59:59;9.90;99.90
15239;DHT22;7722;53.274;9.500;2024-03-02T09:02:26;10.00;99.90
15239;DHT22;7722;53.274;9.500;2024-03-02T09:04:53;9.90;99.90
15239;DHT22;7722;53.274;9.500;2024-03-02T09:07:20;10.00;99.90
15239;DHT22;7722;53.274;9.500;2024-03-02T09:09:47;10.00;99.90
15239;DHT22;7722;53.274;9.500;2024-03-02T09:12:15;10.10;99.90
15239;DHT22;7722;53.274;9.500;2024-03-02T09:14:45;10.20;99.90
15239;DHT22;7722;53.274;9.500;2024-03-02T09:17:13;10.30;99.90
15239;DHT22;7722;53.274;9.500;2024-03-02T09:19:40;10.40;99.90
15239;DHT22;7722;53.274;9.500;2024-03-02T09:22:07;10.40;99.90
15239;DHT22;7722;53.274;9.500;2024-03-02T09:24:35;10.50;99.90
15239;DHT22;7722;53.274;9.500;2024-03-02T09:27:02;10.50;99.90
15239;DHT22;7722;53.274;9.500;2024-03-02T09:29:30;10.70;99.90
15239;DHT22;7722;53.274;9.500;2024-03-02T09:31:59;10.80;99.90
15239;DHT22;7722;53.274;9.500;2024-03-02T09:34:26;10.80;99.90
15239;DHT22;7722;53.274;9.500;2024-03-02T09:36:53;10.70;99.90
15239;DHT22;7722;53.274;9.500;2024-03-02T09:39:20;10.80;99.90
15239;DHT22;7722;53.274;9.500;2024-03-02T09:41:48;10.80;99.90
15239;DHT22;7722;53.274;9.500;2024-03-02T09:44:15;10.80;99.90
15239;DHT22;7722;53.274;9.500;2024-03-02T09:46:43;10.90;99.90
15239;DHT22;7722;53.274;9.500;2024-03-02T09:49:12;10.80;99.90
15239;DHT22;7722;53.274;9.500;2024-03-02T09:51:39;11.00;99.90
15239;DHT22;7722;53.274;9.500;2024-03-02T09:54:07;10.90;99.90
15239;DHT22;7722;53.274;9.500;2024-03-02T09:56:35;11.10;99.90
15239;DHT22;7722;53.274;9.500;2024-03-02T09:59:02;11.20;99.90
15239;DHT22;7722;53.274;9.500;2024-03-02T10:01:30;11.20;99.90
15239;DHT22;7722;53.274;9.500;2024-03-02T10:03:59;11.30;99.90
15239;DHT22;7722;53.274;9.500;2024-03-02T10:06:28;11.40;99.90
15239;DHT22;7722;53.274;9.500;2024-03-02T10:08:56;11.20;99.90
15239;DHT22;7722;53.274;9.500;2024-03-02T10:11:28;11.40;99.90
15239;DHT22;7722;53.274;9.500;2024-03-02T10:14:14;11.40;99.90
15239;DHT22;7722;53.274;9.500;2024-03-02T10:16:42;11.30;99.90
15239;DHT22;7722;53.274;9.500;2024-03-02T10:19:17;11.40;99.90
15239;DHT22;7722;53.274;9.500;2024-03-02T10:21:46;11.40;99.90
15239;DHT22;7722;53.274;9.500;2024-03-02T10:24:13;11.30;99.90
15239;DHT22;7722;53.274;9.500;2024-03-02T10:26:40;11.40;99.90
15239;DHT22;7722;53.274;9.500;2024-03-02T10:29:08;11.50;99.90
15239;DHT22;7722;53.274;9.500;2024-03-02T10:31:37;11.60;99.90
15239;DHT22;7722;53.274;9.500;2024-03-02T10:34:05;11.70;99.90
15239;DHT22;7722;53.274;9.500;2024-03-02T10:36:32;11.70;99.90
15239;DHT22;7722;53.274;9.500;2024-03-02T10:39:03;11.70;99.90
15239;DHT22;7722;53.274;9.500;2024-03-02T10:41:33;11.80;99.90
15239;DHT22;7722;53.274;9.500;2024-03-02T10:44:02;11.80;99.90
15239;DHT22;7722;53.274;9.500;2024-03-02T10:46:30;12.00;99.90
15239;DHT22;7722;53.274;9.500;2024-03-02T10:48:58;12.10;99.90
15239;DHT22;7722;53.274;9.500;2024-03-02T10:51:25;12.20;99.90
15239;DHT22;7722;53.274;9.500;2024-03-02T10:53:53;12.20;99.90
15239;DHT22;7722;53.274;9.500;2024-03-02T10:56:28;12.30;99.90
15239;DHT22;7722;53.274;9.500;2024-03-02T10:59:01;12.40;99.90
15239;DHT22;7722;53.274;9.500;2024-03-02T11:01:31;12.50;99.90
15239;DHT22;7722;53.274;9.500;2024-03-02T11:03:59;12.60;99.90
15239;DHT22;7722;53.274;9.500;2024-03-02T11:06:28;12.70;99.90
15239;DHT22;7722;53.274;9.500;2024-03-02T11:09:00;12.60;99.90
15239;DHT22;7722;53.274;9.500;2024-03-02T11:11:38;12.60;99.90
15239;DHT22;7722;53.274;9.500;2024-03-02T11:14:10;12.40;99.90
15239;DHT22;7722;53.274;9.500;2024-03-02T11:16:38;12.50;99.90
15239;DHT22;7722;53.274;9.500;2024-03-02T11:19:09;12.50;99.90
15239;DHT22;7722;53.274;9.500;2024-03-02T11:21:37;12.60;99.90
15239;DHT22;7722;53.274;9.500;2024-03-02T11:24:30;12.60;99.90
15239;DHT22;7722;53.274;9.500;2024-03-02T11:27:03;12.70;99.90
15239;DHT22;7722;53.274;9.500;2024-03-02T11:29:43;12.70;99.90
15239;DHT22;7722;53.274;9.500;2024-03-02T11:32:15;12.70;99.90
15239;DHT22;7722;53.274;9.500;2024-03-02T11:34:44;12.80;99.90
15239;DHT22;7722;53.274;9.500;2024-03-02T11:37:13;12.80;99.90
15239;DHT22;7722;53.274;9.500;2024-03-02T11:39:40;12.90;99.90
15239;DHT22;7722;53.274;9.500;2024-03-02T11:42:09;12.80;99.90
15239;DHT22;7722;53.274;9.500;2024-03-02T11:44:42;12.70;99.90
15239;DHT22;7722;53.274;9.500;2024-03-02T11:47:12;12.70;99.90
15239;DHT22;7722;53.274;9.500;2024-03-02T11:49:42;12.80;99.90
15239;DHT22;7722;53.274;9.500;2024-03-02T11:52:12;12.80;99.90
15239;DHT22;7722;53.274;9.500;2024-03-02T11:54:41;12.90;99.90
15239;DHT22;7722;53.274;9.500;2024-03-02T11:57:14;13.10;99.90
15239;DHT22;7722;53.274;9.500;2024-03-02T11:59:42;13.00;99.90
15239;DHT22;7722;53.274;9.500;2024-03-02T12:02:15;13.00;99.90
15239;DHT22;7722;53.274;9.500;2024-03-02T12:04:43;13.00;99.90
15239;DHT22;7722;53.274;9.500;2024-03-02T12:07:11;13.10;99.90
15239;DHT22;7722;53.274;9.500;2024-03-02T12:09:39;13.10;99.90
15239;DHT22;7722;53.274;9.500;2024-03-02T12:12:07;13.10;99.90
15239;DHT22;7722;53.274;9.500;2024-03-02T12:14:37;13.30;99.90
15239;DHT22;7722;53.274;9.500;2024-03-02T12:17:05;13.30;99.90
15239;DHT22;7722;53.274;9.500;2024-03-02T12:19:33;13.40;99.90
15239;DHT22;7722;53.274;9.500;2024-03-02T12:22:00;13.50;99.90
15239;DHT22;7722;53.274;9.500;2024-03-02T12:24:29;13.40;99.90
15239;DHT22;7722;53.274;9.500;2024-03-02T12:26:57;13.50;99.90
15239;DHT22;7722;53.274;9.500;2024-03-02T12:29:24;13.50;99.90
15239;DHT22;7722;53.274;9.500;2024-03-02T12:31:53;13.60;99.90
15239;DHT22;7722;53.274;9.500;2024-03-02T12:34:21;13.50;99.90
15239;DHT22;7722;53.274;9.500;2024-03-02T12:36:49;13.60;99.90
15239;DHT22;7722;53.274;9.500;2024-03-02T12:39:19;13.70;99.90
15239;DHT22;7722;53.274;9.500;2024-03-02T12:41:49;13.70;99.90
15239;DHT22;7722;53.274;9.500;2024-03-02T12:44:17;13.70;99.90
15239;DHT22;7722;53.274;9.500;2024-03-02T12:46:44;13.70;99.90
15239;DHT22;7722;53.274;9.500;2024-03-02T12:49:14;13.60;99.90
15239;DHT22;7722;53.274;9.500;2024-03-02T12:51:43;13.70;99.90
15239;DHT22;7722;53.274;9.500;2024-03-02T12:54:12;13.70;99.90
15239;DHT22;7722;53.274;9.500;2024-03-02T12:56:41;13.70;99.90
15239;DHT22;7722;53.274;9.500;2024-03-02T12:59:18;13.80;99.90
15239;DHT22;7722;53.274;9.500;2024-03-02T13:01:56;14.10;99.90
15239;DHT22;7722;53.274;9.500;2024-03-02T13:04:26;14.70;99.90
15239;DHT22;7722;53.274;9.500;2024-03-02T13:06:54;15.30;99.90
15239;DHT22;7722;53.274;9.500;2024-03-02T13:09:23;15.40;99.90
15239;DHT22;7722;53.274;9.500;2024-03-02T13:11:51;15.20;99.90
15239;DHT22;7722;53.274;9.500;2024-03-02T13:14:18;15.50;99.90
15239;DHT22;7722;53.274;9.500;2024-03-02T13:16:45;15.90;99.90
15239;DHT22;7722;53.274;9.500;2024-03-02T13:19:12;16.00;99.90
15239;DHT22;7722;53.274;9.500;2024-03-02T13:21:41;16.20;99.90
15239;DHT22;7722;53.274;9.500;2024-03-02T13:24:08;16.60;99.90
15239;DHT22;7722;53.274;9.500;2024-03-02T13:26:36;17.20;99.40
15239;DHT22;7722;53.274;9.500;2024-03-02T13:29:03;17.20;99.00
15239;DHT22;7722;53.274;9.500;2024-03-02T13:31:30;17.40;99.00
15239;DHT22;7722;53.274;9.500;2024-03-02T13:33:57;17.40;98.30
15239;DHT22;7722;53.274;9.500;2024-03-02T13:36:24;17.40;98.30
15239;DHT22;7722;53.274;9.500;2024-03-02T13:38:56;17.60;97.90
15239;DHT22;7722;53.274;9.500;2024-03-02T13:41:24;17.90;98.00
15239;DHT22;7722;53.274;9.500;2024-03-02T13:43:51;17.80;97.50
15239;DHT22;7722;53.274;9.500;2024-03-02T13:46:18;17.90;97.20
15239;DHT22;7722;53.274;9.500;2024-03-02T13:48:45;17.60;97.40
15239;DHT22;7722;53.274;9.500;2024-03-02T13:51:12;17.80;97.60
15239;DHT22;7722;53.274;9.500;2024-03-02T13:53:39;17.70;96.80
15239;DHT22;7722;53.274;9.500;2024-03-02T13:56:08;17.80;97.20
15239;DHT22;7722;53.274;9.500;2024-03-02T13:58:36;18.10;96.70
15239;DHT22;7722;53.274;9.500;2024-03-02T14:01:03;18.10;96.80
15239;DHT22;7722;53.274;9.500;2024-03-02T14:03:31;17.90;97.30
15239;DHT22;7722;53.274;9.500;2024-03-02T14:05:58;18.00;97.20
15239;DHT22;7722;53.274;9.500;2024-03-02T14:08:25;18.20;96.10
15239;DHT22;7722;53.274;9.500;2024-03-02T14:10:52;18.40;95.80
15239;DHT22;7722;53.274;9.500;2024-03-02T14:13:22;18.20;96.40
15239;DHT22;7722;53.274;9.500;2024-03-02T14:15:50;18.00;96.30
15239;DHT22;7722;53.274;9.500;2024-03-02T14:18:17;17.60;97.10
15239;DHT22;7722;53.274;9.500;2024-03-02T14:20:44;17.80;96.40
15239;DHT22;7722;53.274;9.500;2024-03-02T14:23:12;17.80;96.20
15239;DHT22;7722;53.274;9.500;2024-03-02T14:25:39;17.70;96.90
15239;DHT22;7722;53.274;9.500;2024-03-02T14:28:06;17.50;96.50
15239;DHT22;7722;53.274;9.500;2024-03-02T14:30:35;17.70;97.20
15239;DHT22;7722;53.274;9.500;2024-03-02T14:33:03;17.90;96.70
15239;DHT22;7722;53.274;9.500;2024-03-02T14:35:30;18.10;96.40
15239;DHT22;7722;53.274;9.500;2024-03-02T14:37:57;18.30;96.40
15239;DHT22;7722;53.274;9.500;2024-03-02T14:40:24;17.80;96.20
15239;DHT22;7722;53.274;9.500;2024-03-02T14:42:53;17.40;96.40
15239;DHT22;7722;53.274;9.500;2024-03-02T14:45:20;17.40;96.00
15239;DHT22;7722;53.274;9.500;2024-03-02T14:47:49;17.30;96.10
15239;DHT22;7722;53.274;9.500;2024-03-02T14:50:16;16.70;97.10
15239;DHT22;7722;53.274;9.500;2024-03-02T14:52:44;16.80;97.30
15239;DHT22;7722;53.274;9.500;2024-03-02T14:55:12;16.90;97.30
15239;DHT22;7722;53.274;9.500;2024-03-02T14:57:39;17.00;97.20
15239;DHT22;7722;53.274;9.500;2024-03-02T15:00:07;17.40;96.60
15239;DHT22;7722;53.274;9.500;2024-03-02T15:02:34;17.40;96.90
15239;DHT22;7722;53.274;9.500;2024-03-02T15:05:03;17.30;96.90
15239;DHT22;7722;53.274;9.500;2024-03-02T15:07:31;16.80;97.20
15239;DHT22;7722;53.274;9.500;2024-03-02T15:09:58;16.20;97.40
15239;DHT22;7722;53.274;9.500;2024-03-02T15:12:25;16.10;97.70
15239;DHT22;7722;53.274;9.500;2024-03-02T15:14:53;16.30;98.00
15239;DHT22;7722;53.274;9.500;2024-03-02T15:17:20;16.00;97.70
15239;DHT22;7722;53.274;9.500;2024-03-02T15:19:47;15.60;98.70
15239;DHT22;7722;53.274;9.500;2024-03-02T15:22:15;16.10;98.60
15239;DHT22;7722;53.274;9.500;2024-03-02T15:24:42;16.40;97.90
15239;DHT22;7722;53.274;9.500;2024-03-02T15:27:09;16.30;98.40
15239;DHT22;7722;53.274;9.500;2024-03-02T15:29:37;16.40;97.70
15239;DHT22;7722;53.274;9.500;2024-03-02T15:32:04;16.30;98.30
15239;DHT22;7722;53.274;9.500;2024-03-02T15:34:32;16.10;98.00
15239;DHT22;7722;53.274;9.500;2024-03-02T15:36:59;15.80;98.90
15239;DHT22;7722;53.274;9.500;2024-03-02T15:39:28;15.60;98.50
15239;DHT22;7722;53.274;9.500;2024-03-02T15:41:55;15.30;98.60
15239;DHT22;7722;53.274;9.500;2024-03-02T15:44:22;15.00;99.70
15239;DHT22;7722;53.274;9.500;2024-03-02T15:46:49;14.90;99.90
15239;DHT22;7722;53.274;9.500;2024-03-02T15:49:16;14.60;99.90
15239;DHT22;7722;53.274;9.500;2024-03-02T15:51:43;14.30;99.90
15239;DHT22;7722;53.274;9.500;2024-03-02T15:54:11;14.20;99.90
15239;DHT22;7722;53.274;9.500;2024-03-02T15:56:39;14.10;99.90
15239;DHT22;7722;53.274;9.500;2024-03-02T15:59:07;13.90;99.90
15239;DHT22;7722;53.274;9.500;2024-03-02T16:01:34;13.80;99.90
15239;DHT22;7722;53.274;9.500;2024-03-02T16:04:02;13.70;99.90